sensor_id;sensor_type;location;lat;lon;timestamp;P1;durP1;ratioP1;P2;durP2;ratioP2
11008;SDS011;5557;51.670;7.788;2023-03-14T00:01:47;2.07;;;1.57;;
11008;SDS011;5557;51.670;7.788;2023-03-14T00:04:14;3.43;;;1.30;;
11008;SDS011;5557;51.670;7.788;2023-03-14T00:06:41;5.10;;;1.63;;
11008;SDS011;5557;51.670;7.788;2023-03-14T00:09:08;5.40;;;1.80;;
11008;SDS011;5557;51.670;7.788;2023-03-14T00:11:38;3.43;;;1.60;;
11008;SDS011;5557;51.670;7.788;2023-03-14T00:14:06;1.80;;;1.33;;
11008;SDS011;5557;51.670;7.788;2023-03-14T00:16:33;3.43;;;1.47;;
11008;SDS011;5557;51.670;7.788;2023-03-14T00:19:00;9.67;;;1.57;;
11008;SDS011;5557;51.670;7.788;2023-03-14T00:21:27;3.43;;;1.57;;
11008;SDS011;5557;51.670;7.788;2023-03-14T00:23:54;1.43;;;1.20;;
11008;SDS011;5557;51.670;7.788;2023-03-14T00:26:21;6.70;;;1.30;;
11008;SDS011;5557;51.670;7.788;2023-03-14T00:28:52;2.30;;;1.00;;
11008;SDS011;5557;51.670;7.788;2023-03-14T00:31:20;1.63;;;1.50;;
11008;SDS011;5557;51.670;7.788;2023-03-14T00:33:47;2.33;;;1.33;;
11008;SDS011;5557;51.670;7.788;2023-03-14T00:36:15;3.53;;;1.50;;
11008;SDS011;5557;51.670;7.788;2023-03-14T00:38:43;2.00;;;1.10;;
11008;SDS011;5557;51.670;7.788;2023-03-14T00:41:13;4.73;;;1.33;;
11008;SDS011;5557;51.670;7.788;2023-03-14T00:43:42;2.60;;;1.17;;
11008;SDS011;5557;51.670;7.788;2023-03-14T00:46:09;5.30;;;2.00;;
11008;SDS011;5557;51.670;7.788;2023-03-14T00:48:36;3.63;;;1.50;;
11008;SDS011;5557;51.670;7.788;2023-03-14T00:51:04;7.00;;;1.60;;
11008;SDS011;5557;51.670;7.788;2023-03-14T00:53:36;4.47;;;1.80;;
11008;SDS011;5557;51.670;7.788;2023-03-14T00:56:05;4.30;;;1.97;;
11008;SDS011;5557;51.670;7.788;2023-03-14T00:58:34;4.73;;;1.20;;
11008;SDS011;5557;51.670;7.788;2023-03-14T01:01:05;2.77;;;1.07;;
11008;SDS011;5557;51.670;7.788;2023-03-14T01:03:34;4.50;;;1.80;;
11008;SDS011;5557;51.670;7.788;2023-03-14T01:06:11;5.07;;;1.30;;
11008;SDS011;5557;51.670;7.788;2023-03-14T01:08:43;3.80;;;1.27;;
11008;SDS011;5557;51.670;7.788;2023-03-14T01:11:13;6.33;;;1.10;;
11008;SDS011;5557;51.670;7.788;2023-03-14T01:13:45;7.30;;;1.80;;
11008;SDS011;5557;51.670;7.788;2023-03-14T01:16:12;3.70;;;1.23;;
11008;SDS011;5557;51.670;7.788;2023-03-14T01:18:41;3.67;;;1.23;;
11008;SDS011;5557;51.670;7.788;2023-03-14T01:21:11;3.30;;;1.10;;
11008;SDS011;5557;51.670;7.788;2023-03-14T01:23:41;1.80;;;1.10;;
11008;SDS011;5557;51.670;7.788;2023-03-14T01:26:10;1.37;;;1.00;;
11008;SDS011;5557;51.670;7.788;2023-03-14T01:28:38;4.77;;;1.13;;
11008;SDS011;5557;51.670;7.788;2023-03-14T01:31:06;2.10;;;0.80;;
11008;SDS011;5557;51.670;7.788;2023-03-14T01:33:35;3.53;;;1.50;;
11008;SDS011;5557;51.670;7.788;2023-03-14T01:36:03;2.50;;;0.90;;
11008;SDS011;5557;51.670;7.788;2023-03-14T01:38:34;5.33;;;1.10;;
11008;SDS011;5557;51.670;7.788;2023-03-14T01:41:02;4.27;;;1.50;;
11008;SDS011;5557;51.670;7.788;2023-03-14T01:43:30;6.10;;;1.40;;
11008;SDS011;5557;51.670;7.788;2023-03-14T01:48:54;2.70;;;0.80;;
11008;SDS011;5557;51.670;7.788;2023-03-14T01:51:42;1.27;;;0.57;;
11008;SDS011;5557;51.670;7.788;2023-03-14T01:54:39;0.80;;;0.50;;
11008;SDS011;5557;51.670;7.788;2023-03-14T01:57:16;1.63;;;0.90;;
11008;SDS011;5557;51.670;7.788;2023-03-14T01:59:52;2.93;;;0.60;;
11008;SDS011;5557;51.670;7.788;2023-03-14T02:02:24;1.20;;;0.60;;
11008;SDS011;5557;51.670;7.788;2023-03-14T02:04:53;3.57;;;0.60;;
11008;SDS011;5557;51.670;7.788;2023-03-14T02:07:33;2.50;;;1.13;;
11008;SDS011;5557;51.670;7.788;2023-03-14T02:10:06;1.53;;;0.80;;
11008;SDS011;5557;51.670;7.788;2023-03-14T02:12:35;7.87;;;1.30;;
11008;SDS011;5557;51.670;7.788;2023-03-14T02:15:03;1.57;;;0.70;;
11008;SDS011;5557;51.670;7.788;2023-03-14T02:17:31;2.13;;;0.90;;
11008;SDS011;5557;51.670;7.788;2023-03-14T02:21:23;2.40;;;1.10;;
11008;SDS011;5557;51.670;7.788;2023-03-14T02:22:58;2.90;;;1.30;;
11008;SDS011;5557;51.670;7.788;2023-03-14T02:26:09;2.00;;;0.90;;
11008;SDS011;5557;51.670;7.788;2023-03-14T02:28:24;2.10;;;0.87;;
11008;SDS011;5557;51.670;7.788;2023-03-14T02:30:51;6.67;;;1.30;;
11008;SDS011;5557;51.670;7.788;2023-03-14T02:33:19;1.67;;;0.90;;
11008;SDS011;5557;51.670;7.788;2023-03-14T02:35:49;7.03;;;1.07;;
11008;SDS011;5557;51.670;7.788;2023-03-14T02:38:39;9.20;;;0.83;;
11008;SDS011;5557;51.670;7.788;2023-03-14T02:41:21;2.43;;;0.70;;
11008;SDS011;5557;51.670;7.788;2023-03-14T02:43:48;2.80;;;0.73;;
11008;SDS011;5557;51.670;7.788;2023-03-14T02:46:19;1.27;;;1.00;;
11008;SDS011;5557;51.670;7.788;2023-03-14T02:48:51;4.30;;;1.50;;
11008;SDS011;5557;51.670;7.788;2023-03-14T02:51:23;1.30;;;1.10;;
11008;SDS011;5557;51.670;7.788;2023-03-14T02:53:53;4.53;;;0.80;;
11008;SDS011;5557;51.670;7.788;2023-03-14T02:56:20;3.40;;;1.30;;
11008;SDS011;5557;51.670;7.788;2023-03-14T02:58:47;1.63;;;1.07;;
11008;SDS011;5557;51.670;7.788;2023-03-14T03:01:14;1.50;;;0.70;;
11008;SDS011;5557;51.670;7.788;2023-03-14T03:03:41;6.53;;;0.80;;
11008;SDS011;5557;51.670;7.788;2023-03-14T03:06:08;2.43;;;0.70;;
11008;SDS011;5557;51.670;7.788;2023-03-14T03:08:35;4.50;;;1.10;;
11008;SDS011;5557;51.670;7.788;2023-03-14T03:11:03;5.80;;;1.67;;
11008;SDS011;5557;51.670;7.788;2023-03-14T03:13:31;4.30;;;0.90;;
11008;SDS011;5557;51.670;7.788;2023-03-14T03:15:58;2.53;;;1.00;;
11008;SDS011;5557;51.670;7.788;2023-03-14T03:18:24;1.40;;;0.70;;
11008;SDS011;5557;51.670;7.788;2023-03-14T03:20:51;9.17;;;1.40;;
11008;SDS011;5557;51.670;7.788;2023-03-14T03:23:18;3.67;;;1.53;;
11008;SDS011;5557;51.670;7.788;2023-03-14T03:25:49;4.80;;;1.23;;
11008;SDS011;5557;51.670;7.788;2023-03-14T03:28:18;7.93;;;1.37;;
11008;SDS011;5557;51.670;7.788;2023-03-14T03:30:45;2.50;;;0.97;;
11008;SDS011;5557;51.670;7.788;2023-03-14T03:33:12;2.67;;;1.03;;
11008;SDS011;5557;51.670;7.788;2023-03-14T03:35:46;5.07;;;1.07;;
11008;SDS011;5557;51.670;7.788;2023-03-14T03:38:15;2.00;;;1.10;;
11008;SDS011;5557;51.670;7.788;2023-03-14T03:40:42;2.93;;;1.47;;
11008;SDS011;5557;51.670;7.788;2023-03-14T03:43:09;2.00;;;1.60;;
11008;SDS011;5557;51.670;7.788;2023-03-14T03:45:36;1.67;;;1.10;;
11008;SDS011;5557;51.670;7.788;2023-03-14T03:48:03;2.50;;;1.10;;
11008;SDS011;5557;51.670;7.788;2023-03-14T03:50:30;4.43;;;1.20;;
11008;SDS011;5557;51.670;7.788;2023-03-14T03:52:57;6.73;;;0.80;;
11008;SDS011;5557;51.670;7.788;2023-03-14T03:55:24;11.20;;;1.90;;
11008;SDS011;5557;51.670;7.788;2023-03-14T03:57:52;4.70;;;1.40;;
11008;SDS011;5557;51.670;7.788;2023-03-14T04:00:19;5.37;;;1.40;;
11008;SDS011;5557;51.670;7.788;2023-03-14T04:02:46;5.63;;;1.30;;
11008;SDS011;5557;51.670;7.788;2023-03-14T04:05:13;1.87;;;1.20;;
11008;SDS011;5557;51.670;7.788;2023-03-14T04:07:40;5.70;;;1.00;;
11008;SDS011;5557;51.670;7.788;2023-03-14T04:10:07;5.40;;;1.63;;
11008;SDS011;5557;51.670;7.788;2023-03-14T04:12:35;14.00;;;2.13;;
11008;SDS011;5557;51.670;7.788;2023-03-14T04:15:02;6.60;;;1.83;;
11008;SDS011;5557;51.670;7.788;2023-03-14T04:17:29;2.20;;;1.10;;
11008;SDS011;5557;51.670;7.788;2023-03-14T04:19:56;8.73;;;1.33;;
11008;SDS011;5557;51.670;7.788;2023-03-14T04:22:23;11.03;;;1.60;;
11008;SDS011;5557;51.670;7.788;2023-03-14T04:24:50;1.73;;;1.33;;
11008;SDS011;5557;51.670;7.788;2023-03-14T04:27:16;3.90;;;1.43;;
11008;SDS011;5557;51.670;7.788;2023-03-14T04:29:43;2.77;;;1.17;;
11008;SDS011;5557;51.670;7.788;2023-03-14T04:32:12;1.70;;;1.30;;
11008;SDS011;5557;51.670;7.788;2023-03-14T04:34:39;5.30;;;1.40;;
11008;SDS011;5557;51.670;7.788;2023-03-14T04:37:07;4.70;;;1.50;;
11008;SDS011;5557;51.670;7.788;2023-03-14T04:39:34;2.80;;;1.40;;
11008;SDS011;5557;51.670;7.788;2023-03-14T04:42:01;3.80;;;1.00;;
11008;SDS011;5557;51.670;7.788;2023-03-14T04:44:28;4.80;;;1.23;;
11008;SDS011;5557;51.670;7.788;2023-03-14T04:46:55;2.90;;;1.20;;
11008;SDS011;5557;51.670;7.788;2023-03-14T04:49:22;3.53;;;0.73;;
11008;SDS011;5557;51.670;7.788;2023-03-14T04:51:49;3.63;;;1.27;;
11008;SDS011;5557;51.670;7.788;2023-03-14T04:54:17;5.07;;;1.07;;
11008;SDS011;5557;51.670;7.788;2023-03-14T04:56:44;1.30;;;0.90;;
11008;SDS011;5557;51.670;7.788;2023-03-14T04:59:11;7.33;;;1.00;;
11008;SDS011;5557;51.670;7.788;2023-03-14T05:01:38;2.40;;;0.70;;
11008;SDS011;5557;51.670;7.788;2023-03-14T05:04:05;1.40;;;0.90;;
11008;SDS011;5557;51.670;7.788;2023-03-14T05:06:32;1.00;;;0.60;;
11008;SDS011;5557;51.670;7.788;2023-03-14T05:08:59;6.00;;;0.97;;
11008;SDS011;5557;51.670;7.788;2023-03-14T05:11:26;2.57;;;0.77;;
11008;SDS011;5557;51.670;7.788;2023-03-14T05:13:52;1.93;;;0.63;;
11008;SDS011;5557;51.670;7.788;2023-03-14T05:16:19;3.47;;;0.60;;
11008;SDS011;5557;51.670;7.788;2023-03-14T05:18:46;0.80;;;0.50;;
11008;SDS011;5557;51.670;7.788;2023-03-14T05:21:13;1.57;;;0.50;;
11008;SDS011;5557;51.670;7.788;2023-03-14T05:23:40;0.70;;;0.40;;
11008;SDS011;5557;51.670;7.788;2023-03-14T05:26:07;0.70;;;0.40;;
11008;SDS011;5557;51.670;7.788;2023-03-14T05:28:34;2.13;;;0.50;;
11008;SDS011;5557;51.670;7.788;2023-03-14T05:31:01;1.87;;;0.60;;
11008;SDS011;5557;51.670;7.788;2023-03-14T05:33:33;0.90;;;0.60;;
11008;SDS011;5557;51.670;7.788;2023-03-14T05:36:00;0.77;;;0.60;;
11008;SDS011;5557;51.670;7.788;2023-03-14T05:38:27;1.27;;;0.70;;
11008;SDS011;5557;51.670;7.788;2023-03-14T05:40:54;1.17;;;0.63;;
11008;SDS011;5557;51.670;7.788;2023-03-14T05:43:21;0.73;;;0.43;;
11008;SDS011;5557;51.670;7.788;2023-03-14T05:45:48;0.80;;;0.50;;
11008;SDS011;5557;51.670;7.788;2023-03-14T05:48:15;2.03;;;0.70;;
11008;SDS011;5557;51.670;7.788;2023-03-14T05:50:43;1.47;;;0.60;;
11008;SDS011;5557;51.670;7.788;2023-03-14T05:53:10;1.17;;;0.40;;
11008;SDS011;5557;51.670;7.788;2023-03-14T05:55:38;1.27;;;0.80;;
11008;SDS011;5557;51.670;7.788;2023-03-14T05:58:05;2.50;;;0.67;;
11008;SDS011;5557;51.670;7.788;2023-03-14T06:00:32;1.13;;;0.40;;
11008;SDS011;5557;51.670;7.788;2023-03-14T06:02:59;1.83;;;0.50;;
11008;SDS011;5557;51.670;7.788;2023-03-14T06:05:26;2.30;;;0.90;;
11008;SDS011;5557;51.670;7.788;2023-03-14T06:07:53;5.10;;;0.50;;
11008;SDS011;5557;51.670;7.788;2023-03-14T06:10:19;3.20;;;0.40;;
11008;SDS011;5557;51.670;7.788;2023-03-14T06:12:47;4.00;;;1.43;;
11008;SDS011;5557;51.670;7.788;2023-03-14T06:15:14;1.00;;;0.60;;
11008;SDS011;5557;51.670;7.788;2023-03-14T06:17:40;1.83;;;0.50;;
11008;SDS011;5557;51.670;7.788;2023-03-14T06:20:08;2.03;;;0.50;;
11008;SDS011;5557;51.670;7.788;2023-03-14T06:22:36;0.70;;;0.50;;
11008;SDS011;5557;51.670;7.788;2023-03-14T06:25:03;1.27;;;0.57;;
11008;SDS011;5557;51.670;7.788;2023-03-14T06:27:30;0.80;;;0.40;;
11008;SDS011;5557;51.670;7.788;2023-03-14T06:29:57;2.63;;;0.50;;
11008;SDS011;5557;51.670;7.788;2023-03-14T06:32:24;1.10;;;0.60;;
11008;SDS011;5557;51.670;7.788;2023-03-14T06:34:52;3.10;;;0.50;;
11008;SDS011;5557;51.670;7.788;2023-03-14T06:37:19;0.70;;;0.50;;
11008;SDS011;5557;51.670;7.788;2023-03-14T06:39:46;2.27;;;0.63;;
11008;SDS011;5557;51.670;7.788;2023-03-14T06:42:13;1.00;;;0.70;;
11008;SDS011;5557;51.670;7.788;2023-03-14T06:44:41;0.80;;;0.60;;
11008;SDS011;5557;51.670;7.788;2023-03-14T06:47:08;0.80;;;0.60;;
11008;SDS011;5557;51.670;7.788;2023-03-14T06:49:35;0.90;;;0.67;;
11008;SDS011;5557;51.670;7.788;2023-03-14T06:52:02;2.30;;;0.70;;
11008;SDS011;5557;51.670;7.788;2023-03-14T06:54:29;1.00;;;0.90;;
11008;SDS011;5557;51.670;7.788;2023-03-14T06:56:56;2.60;;;2.03;;
11008;SDS011;5557;51.670;7.788;2023-03-14T06:59:23;1.17;;;0.90;;
11008;SDS011;5557;51.670;7.788;2023-03-14T07:01:50;0.90;;;0.70;;
11008;SDS011;5557;51.670;7.788;2023-03-14T07:04:17;1.73;;;1.27;;
11008;SDS011;5557;51.670;7.788;2023-03-14T07:06:44;2.67;;;1.47;;
11008;SDS011;5557;51.670;7.788;2023-03-14T07:09:12;1.07;;;1.00;;
11008;SDS011;5557;51.670;7.788;2023-03-14T07:11:40;6.33;;;1.80;;
11008;SDS011;5557;51.670;7.788;2023-03-14T07:14:07;1.90;;;1.30;;
11008;SDS011;5557;51.670;7.788;2023-03-14T07:16:34;2.80;;;1.20;;
11008;SDS011;5557;51.670;7.788;2023-03-14T07:19:01;1.10;;;1.00;;
11008;SDS011;5557;51.670;7.788;2023-03-14T07:21:29;2.83;;;1.50;;
11008;SDS011;5557;51.670;7.788;2023-03-14T07:23:58;3.30;;;1.53;;
11008;SDS011;5557;51.670;7.788;2023-03-14T07:26:25;1.10;;;1.00;;
11008;SDS011;5557;51.670;7.788;2023-03-14T07:28:51;1.13;;;1.00;;
11008;SDS011;5557;51.670;7.788;2023-03-14T07:31:18;2.70;;;1.00;;
11008;SDS011;5557;51.670;7.788;2023-03-14T07:33:46;1.70;;;1.60;;
11008;SDS011;5557;51.670;7.788;2023-03-14T07:36:13;1.83;;;1.27;;
11008;SDS011;5557;51.670;7.788;2023-03-14T07:38:40;0.90;;;0.90;;
11008;SDS011;5557;51.670;7.788;2023-03-14T07:41:07;4.20;;;3.90;;
11008;SDS011;5557;51.670;7.788;2023-03-14T07:43:34;1.10;;;1.00;;
11008;SDS011;5557;51.670;7.788;2023-03-14T07:46:00;1.57;;;1.00;;
11008;SDS011;5557;51.670;7.788;2023-03-14T07:48:27;1.87;;;0.93;;
11008;SDS011;5557;51.670;7.788;2023-03-14T07:50:55;2.27;;;0.93;;
11008;SDS011;5557;51.670;7.788;2023-03-14T07:53:22;1.10;;;1.00;;
11008;SDS011;5557;51.670;7.788;2023-03-14T07:55:50;3.20;;;0.90;;
11008;SDS011;5557;51.670;7.788;2023-03-14T07:58:18;1.33;;;1.23;;
11008;SDS011;5557;51.670;7.788;2023-03-14T08:00:45;1.07;;;0.67;;
11008;SDS011;5557;51.670;7.788;2023-03-14T08:03:15;1.13;;;1.03;;
11008;SDS011;5557;51.670;7.788;2023-03-14T08:05:43;4.03;;;0.80;;
11008;SDS011;5557;51.670;7.788;2023-03-14T08:08:10;1.57;;;0.80;;
11008;SDS011;5557;51.670;7.788;2023-03-14T08:10:37;0.93;;;0.93;;
11008;SDS011;5557;51.670;7.788;2023-03-14T08:13:06;4.30;;;0.73;;
11008;SDS011;5557;51.670;7.788;2023-03-14T08:15:33;1.30;;;0.70;;
11008;SDS011;5557;51.670;7.788;2023-03-14T08:18:00;0.80;;;0.70;;
11008;SDS011;5557;51.670;7.788;2023-03-14T08:20:27;0.80;;;0.77;;
11008;SDS011;5557;51.670;7.788;2023-03-14T08:22:56;1.27;;;1.17;;
11008;SDS011;5557;51.670;7.788;2023-03-14T08:25:27;1.20;;;0.87;;
11008;SDS011;5557;51.670;7.788;2023-03-14T08:27:55;0.80;;;0.70;;
11008;SDS011;5557;51.670;7.788;2023-03-14T08:30:22;3.00;;;1.13;;
11008;SDS011;5557;51.670;7.788;2023-03-14T08:32:50;2.67;;;0.93;;
11008;SDS011;5557;51.670;7.788;2023-03-14T08:35:17;1.07;;;0.97;;
11008;SDS011;5557;51.670;7.788;2023-03-14T08:37:44;0.80;;;0.80;;
11008;SDS011;5557;51.670;7.788;2023-03-14T08:40:11;1.97;;;1.10;;
11008;SDS011;5557;51.670;7.788;2023-03-14T08:42:39;0.80;;;0.80;;
11008;SDS011;5557;51.670;7.788;2023-03-14T08:45:06;1.00;;;0.90;;
11008;SDS011;5557;51.670;7.788;2023-03-14T08:47:34;2.50;;;0.80;;
11008;SDS011;5557;51.670;7.788;2023-03-14T08:50:02;1.17;;;1.07;;
11008;SDS011;5557;51.670;7.788;2023-03-14T08:52:34;1.70;;;0.90;;
11008;SDS011;5557;51.670;7.788;2023-03-14T08:55:04;2.27;;;1.07;;
11008;SDS011;5557;51.670;7.788;2023-03-14T08:57:31;1.00;;;0.90;;
11008;SDS011;5557;51.670;7.788;2023-03-14T08:59:58;1.20;;;1.10;;
11008;SDS011;5557;51.670;7.788;2023-03-14T09:02:25;0.87;;;0.87;;
11008;SDS011;5557;51.670;7.788;2023-03-14T09:04:53;1.20;;;1.10;;
11008;SDS011;5557;51.670;7.788;2023-03-14T09:07:20;1.13;;;1.03;;
11008;SDS011;5557;51.670;7.788;2023-03-14T09:09:47;1.20;;;1.10;;
11008;SDS011;5557;51.670;7.788;2023-03-14T09:12:14;2.43;;;1.00;;
11008;SDS011;5557;51.670;7.788;2023-03-14T09:14:41;2.40;;;1.30;;
11008;SDS011;5557;51.670;7.788;2023-03-14T09:17:08;1.37;;;1.27;;
11008;SDS011;5557;51.670;7.788;2023-03-14T09:19:35;1.50;;;1.40;;
11008;SDS011;5557;51.670;7.788;2023-03-14T09:22:03;1.70;;;1.60;;
11008;SDS011;5557;51.670;7.788;2023-03-14T09:24:30;6.10;;;1.63;;
11008;SDS011;5557;51.670;7.788;2023-03-14T09:26:57;2.50;;;1.60;;
11008;SDS011;5557;51.670;7.788;2023-03-14T09:29:24;1.50;;;1.40;;
11008;SDS011;5557;51.670;7.788;2023-03-14T09:31:55;6.10;;;1.27;;
11008;SDS011;5557;51.670;7.788;2023-03-14T09:34:25;1.30;;;1.20;;
11008;SDS011;5557;51.670;7.788;2023-03-14T09:36:53;1.40;;;1.30;;
11008;SDS011;5557;51.670;7.788;2023-03-14T09:39:23;1.07;;;1.00;;
11008;SDS011;5557;51.670;7.788;2023-03-14T09:41:51;1.30;;;1.20;;
11008;SDS011;5557;51.670;7.788;2023-03-14T09:44:25;1.53;;;1.43;;
11008;SDS011;5557;51.670;7.788;2023-03-14T09:47:06;1.40;;;1.30;;
11008;SDS011;5557;51.670;7.788;2023-03-14T09:49:37;1.50;;;1.40;;
11008;SDS011;5557;51.670;7.788;2023-03-14T09:52:14;1.70;;;1.60;;
11008;SDS011;5557;51.670;7.788;2023-03-14T09:54:54;1.40;;;1.30;;
11008;SDS011;5557;51.670;7.788;2023-03-14T09:57:30;1.40;;;1.30;;
11008;SDS011;5557;51.670;7.788;2023-03-14T10:00:03;2.27;;;1.70;;
11008;SDS011;5557;51.670;7.788;2023-03-14T10:02:42;9.03;;;2.13;;
11008;SDS011;5557;51.670;7.788;2023-03-14T10:05:14;2.03;;;1.70;;
11008;SDS011;5557;51.670;7.788;2023-03-14T10:07:43;1.20;;;1.10;;
11008;SDS011;5557;51.670;7.788;2023-03-14T10:10:11;1.10;;;0.93;;
11008;SDS011;5557;51.670;7.788;2023-03-14T10:12:45;2.37;;;1.40;;
11008;SDS011;5557;51.670;7.788;2023-03-14T10:15:14;1.20;;;1.10;;
11008;SDS011;5557;51.670;7.788;2023-03-14T10:17:52;1.07;;;0.97;;
11008;SDS011;5557;51.670;7.788;2023-03-14T10:26:00;1.10;;;0.90;;
11008;SDS011;5557;51.670;7.788;2023-03-14T10:28:43;4.43;;;1.07;;
11008;SDS011;5557;51.670;7.788;2023-03-14T10:31:17;1.10;;;1.00;;
11008;SDS011;5557;51.670;7.788;2023-03-14T10:33:59;1.00;;;0.80;;
11008;SDS011;5557;51.670;7.788;2023-03-14T10:36:32;0.80;;;0.70;;
11008;SDS011;5557;51.670;7.788;2023-03-14T10:42:28;1.10;;;0.67;;
11008;SDS011;5557;51.670;7.788;2023-03-14T10:45:02;1.10;;;0.60;;
11008;SDS011;5557;51.670;7.788;2023-03-14T10:47:32;2.50;;;0.60;;
11008;SDS011;5557;51.670;7.788;2023-03-14T10:52:55;1.50;;;0.70;;
11008;SDS011;5557;51.670;7.788;2023-03-14T10:55:27;1.90;;;0.63;;
11008;SDS011;5557;51.670;7.788;2023-03-14T10:58:05;1.70;;;0.80;;
11008;SDS011;5557;51.670;7.788;2023-03-14T11:00:45;1.50;;;0.70;;
11008;SDS011;5557;51.670;7.788;2023-03-14T11:03:24;1.00;;;0.87;;
11008;SDS011;5557;51.670;7.788;2023-03-14T11:06:14;1.07;;;0.70;;
11008;SDS011;5557;51.670;7.788;2023-03-14T11:08:55;0.70;;;0.60;;
11008;SDS011;5557;51.670;7.788;2023-03-14T11:11:31;1.23;;;1.13;;
11008;SDS011;5557;51.670;7.788;2023-03-14T11:25:45;1.67;;;0.60;;
11008;SDS011;5557;51.670;7.788;2023-03-14T11:28:40;1.47;;;0.70;;
11008;SDS011;5557;51.670;7.788;2023-03-14T11:31:22;0.70;;;0.60;;
11008;SDS011;5557;51.670;7.788;2023-03-14T11:34:10;3.03;;;1.03;;
11008;SDS011;5557;51.670;7.788;2023-03-14T11:37:07;1.50;;;0.77;;
11008;SDS011;5557;51.670;7.788;2023-03-14T11:39:47;1.17;;;0.80;;
11008;SDS011;5557;51.670;7.788;2023-03-14T11:42:36;1.10;;;0.80;;
11008;SDS011;5557;51.670;7.788;2023-03-14T11:45:04;2.63;;;0.90;;
11008;SDS011;5557;51.670;7.788;2023-03-14T11:47:45;1.00;;;0.70;;
11008;SDS011;5557;51.670;7.788;2023-03-14T11:50:27;1.10;;;1.00;;
11008;SDS011;5557;51.670;7.788;2023-03-14T11:52:58;1.20;;;0.80;;
11008;SDS011;5557;51.670;7.788;2023-03-14T11:55:37;1.67;;;0.73;;
11008;SDS011;5557;51.670;7.788;2023-03-14T12:01:06;3.83;;;1.50;;
11008;SDS011;5557;51.670;7.788;2023-03-14T12:03:51;3.80;;;0.73;;
11008;SDS011;5557;51.670;7.788;2023-03-14T12:06:28;0.93;;;0.90;;
11008;SDS011;5557;51.670;7.788;2023-03-14T12:09:17;1.30;;;1.20;;
11008;SDS011;5557;51.670;7.788;2023-03-14T12:11:54;3.00;;;1.20;;
11008;SDS011;5557;51.670;7.788;2023-03-14T12:14:28;1.50;;;1.40;;
11008;SDS011;5557;51.670;7.788;2023-03-14T12:17:04;4.30;;;1.60;;
11008;SDS011;5557;51.670;7.788;2023-03-14T12:19:34;2.87;;;1.57;;
11008;SDS011;5557;51.670;7.788;2023-03-14T12:25:05;2.10;;;1.60;;
11008;SDS011;5557;51.670;7.788;2023-03-14T12:27:48;4.30;;;1.87;;
11008;SDS011;5557;51.670;7.788;2023-03-14T12:30:30;3.77;;;1.80;;
11008;SDS011;5557;51.670;7.788;2023-03-14T12:35:47;1.50;;;1.40;;
11008;SDS011;5557;51.670;7.788;2023-03-14T12:41:29;3.33;;;1.80;;
11008;SDS011;5557;51.670;7.788;2023-03-14T12:50:12;3.83;;;1.20;;
11008;SDS011;5557;51.670;7.788;2023-03-14T12:52:45;6.53;;;1.10;;
11008;SDS011;5557;51.670;7.788;2023-03-14T12:55:33;6.33;;;1.00;;
11008;SDS011;5557;51.670;7.788;2023-03-14T13:01:02;7.30;;;2.20;;
11008;SDS011;5557;51.670;7.788;2023-03-14T13:03:39;5.37;;;1.50;;
11008;SDS011;5557;51.670;7.788;2023-03-14T13:06:11;7.13;;;1.63;;
11008;SDS011;5557;51.670;7.788;2023-03-14T13:08:42;3.60;;;1.00;;
11008;SDS011;5557;51.670;7.788;2023-03-14T13:11:18;2.23;;;1.20;;
11008;SDS011;5557;51.670;7.788;2023-03-14T13:13:47;6.10;;;1.53;;
11008;SDS011;5557;51.670;7.788;2023-03-14T13:16:17;3.57;;;2.97;;
11008;SDS011;5557;51.670;7.788;2023-03-14T13:18:47;6.50;;;1.97;;
11008;SDS011;5557;51.670;7.788;2023-03-14T13:21:16;12.07;;;1.83;;
11008;SDS011;5557;51.670;7.788;2023-03-14T13:24:02;9.37;;;2.33;;
11008;SDS011;5557;51.670;7.788;2023-03-14T13:26:44;9.10;;;2.13;;
11008;SDS011;5557;51.670;7.788;2023-03-14T13:29:16;11.10;;;1.70;;
11008;SDS011;5557;51.670;7.788;2023-03-14T13:31:53;3.73;;;1.40;;
11008;SDS011;5557;51.670;7.788;2023-03-14T13:34:25;6.70;;;1.23;;
11008;SDS011;5557;51.670;7.788;2023-03-14T13:36:57;8.00;;;1.93;;
11008;SDS011;5557;51.670;7.788;2023-03-14T13:39:25;8.07;;;1.73;;
11008;SDS011;5557;51.670;7.788;2023-03-14T13:41:55;5.20;;;1.40;;
11008;SDS011;5557;51.670;7.788;2023-03-14T13:44:32;6.30;;;1.90;;
11008;SDS011;5557;51.670;7.788;2023-03-14T13:47:02;7.73;;;1.83;;
11008;SDS011;5557;51.670;7.788;2023-03-14T13:49:32;9.13;;;3.07;;
11008;SDS011;5557;51.670;7.788;2023-03-14T13:52:02;7.00;;;2.20;;
11008;SDS011;5557;51.670;7.788;2023-03-14T13:54:30;8.63;;;2.30;;
11008;SDS011;5557;51.670;7.788;2023-03-14T13:56:59;14.40;;;1.93;;
11008;SDS011;5557;51.670;7.788;2023-03-14T13:59:33;7.53;;;2.80;;
11008;SDS011;5557;51.670;7.788;2023-03-14T14:02:05;4.83;;;2.50;;
11008;SDS011;5557;51.670;7.788;2023-03-14T14:04:41;10.00;;;2.90;;
11008;SDS011;5557;51.670;7.788;2023-03-14T14:07:09;12.40;;;2.67;;
11008;SDS011;5557;51.670;7.788;2023-03-14T14:09:42;20.73;;;2.60;;
11008;SDS011;5557;51.670;7.788;2023-03-14T14:12:14;7.50;;;2.63;;
11008;SDS011;5557;51.670;7.788;2023-03-14T14:14:47;10.63;;;3.87;;
11008;SDS011;5557;51.670;7.788;2023-03-14T14:17:24;9.73;;;2.90;;
11008;SDS011;5557;51.670;7.788;2023-03-14T14:19:56;13.03;;;2.60;;
11008;SDS011;5557;51.670;7.788;2023-03-14T14:22:25;11.87;;;2.10;;
11008;SDS011;5557;51.670;7.788;2023-03-14T14:24:52;11.57;;;2.90;;
11008;SDS011;5557;51.670;7.788;2023-03-14T14:27:23;17.17;;;2.77;;
11008;SDS011;5557;51.670;7.788;2023-03-14T14:32:51;21.23;;;3.17;;
11008;SDS011;5557;51.670;7.788;2023-03-14T14:35:30;11.57;;;3.47;;
11008;SDS011;5557;51.670;7.788;2023-03-14T14:38:01;17.20;;;3.13;;
11008;SDS011;5557;51.670;7.788;2023-03-14T14:40:35;11.30;;;3.07;;
11008;SDS011;5557;51.670;7.788;2023-03-14T14:43:17;24.77;;;3.63;;
11008;SDS011;5557;51.670;7.788;2023-03-14T14:45:54;17.33;;;2.50;;
11008;SDS011;5557;51.670;7.788;2023-03-14T14:48:24;15.60;;;2.67;;
11008;SDS011;5557;51.670;7.788;2023-03-14T14:50:57;5.90;;;2.47;;
11008;SDS011;5557;51.670;7.788;2023-03-14T14:53:39;12.90;;;2.83;;
11008;SDS011;5557;51.670;7.788;2023-03-14T14:56:17;12.70;;;3.83;;
11008;SDS011;5557;51.670;7.788;2023-03-14T14:58:48;9.50;;;1.40;;
11008;SDS011;5557;51.670;7.788;2023-03-14T15:01:19;17.03;;;2.53;;
11008;SDS011;5557;51.670;7.788;2023-03-14T15:03:50;9.47;;;2.13;;
11008;SDS011;5557;51.670;7.788;2023-03-14T15:06:18;8.40;;;1.53;;
11008;SDS011;5557;51.670;7.788;2023-03-14T15:08:47;12.87;;;2.37;;
11008;SDS011;5557;51.670;7.788;2023-03-14T15:11:19;5.30;;;2.03;;
11008;SDS011;5557;51.670;7.788;2023-03-14T15:13:50;12.93;;;1.80;;
11008;SDS011;5557;51.670;7.788;2023-03-14T15:16:19;6.27;;;1.97;;
11008;SDS011;5557;51.670;7.788;2023-03-14T15:18:53;13.80;;;2.07;;
11008;SDS011;5557;51.670;7.788;2023-03-14T15:21:22;7.43;;;1.67;;
11008;SDS011;5557;51.670;7.788;2023-03-14T15:23:50;10.67;;;1.93;;
11008;SDS011;5557;51.670;7.788;2023-03-14T15:26:18;4.23;;;1.60;;
11008;SDS011;5557;51.670;7.788;2023-03-14T15:28:48;6.57;;;1.90;;
11008;SDS011;5557;51.670;7.788;2023-03-14T15:31:16;6.10;;;1.90;;
11008;SDS011;5557;51.670;7.788;2023-03-14T15:33:45;14.30;;;2.37;;
11008;SDS011;5557;51.670;7.788;2023-03-14T15:36:19;2.50;;;1.37;;
11008;SDS011;5557;51.670;7.788;2023-03-14T15:38:51;4.20;;;1.30;;
11008;SDS011;5557;51.670;7.788;2023-03-14T15:41:19;12.40;;;2.07;;
11008;SDS011;5557;51.670;7.788;2023-03-14T15:43:47;6.90;;;1.80;;
11008;SDS011;5557;51.670;7.788;2023-03-14T15:46:14;5.00;;;1.47;;
11008;SDS011;5557;51.670;7.788;2023-03-14T15:48:44;13.47;;;1.63;;
11008;SDS011;5557;51.670;7.788;2023-03-14T15:51:11;3.60;;;1.33;;
11008;SDS011;5557;51.670;7.788;2023-03-14T15:53:38;5.63;;;1.30;;
11008;SDS011;5557;51.670;7.788;2023-03-14T15:56:06;2.70;;;1.33;;
11008;SDS011;5557;51.670;7.788;2023-03-14T15:58:37;1.40;;;0.93;;
11008;SDS011;5557;51.670;7.788;2023-03-14T16:01:07;2.00;;;0.80;;
11008;SDS011;5557;51.670;7.788;2023-03-14T16:03:35;5.77;;;2.80;;
11008;SDS011;5557;51.670;7.788;2023-03-14T16:06:03;2.00;;;1.10;;
11008;SDS011;5557;51.670;7.788;2023-03-14T16:08:30;5.63;;;1.23;;
11008;SDS011;5557;51.670;7.788;2023-03-14T16:10:58;2.30;;;1.07;;